Terminal Aerodrome Forecast
Issued by NWS

Home | Current Version | Previous Version | Text Only | Print | Product List | Glossary On
Versions: 1 2 3 4 5 6 7 8 9 10 11 12 13 14 15 16 17
000
FTUS44 KCRP 030859 AAA
TAFALI
TAF AMD
KALI 030859Z 0309/0406 08003KT 6SM BR FEW018 SCT025
      TEMPO 0309/0313 3SM BR BKN025
     FM031400 16006KT P6SM BKN035
     FM031900 14010KT P6SM VCSH BKN045
     FM032200 12012KT P6SM SCT050=

USA.gov is the U.S. government's official web portal to all federal, state and local government web resources and services.